Time;durP1;ratioP1;P1;durP2;ratioP2;P2;SDS_P1;SDS_P2;PMS_P1;PMS_P2;Temp;Humidity;BMP_temperature;BMP_pressure;BME280_temperature;BME280_humidity;BME280_pressure;Samples;Min_cycle;Max_cycle;Signal;HPM_P1;HPM_P2
2022/07/26 00:01:26;;;;;;;;;;;13.70;99.90;;;;;;5094070;28;19908;-71
2022/07/26 00:03:53;;;;;;;;;;;13.70;99.90;;;;;;5070681;28;19921;-71
2022/07/26 00:06:20;;;;;;;;;;;13.70;99.90;;;;;;5054255;28;20270;-72
2022/07/26 00:08:47;;;;;;;;;;;13.80;99.90;;;;;;5053092;28;19956;-71
2022/07/26 00:11:14;;;;;;;;;;;13.80;99.90;;;;;;5053210;28;19931;-71
2022/07/26 00:13:41;;;;;;;;;;;13.80;99.90;;;;;;5053198;28;20347;-71
2022/07/26 00:16:08;;;;;;;;;;;13.80;99.90;;;;;;5080861;28;20362;-71
2022/07/26 00:18:35;;;;;;;;;;;13.80;99.90;;;;;;5093833;28;19908;-71
2022/07/26 00:21:02;;;;;;;;;;;13.70;99.90;;;;;;5093881;28;19962;-71
2022/07/26 00:23:28;;;;;;;;;;;13.70;99.90;;;;;;5092162;28;20018;-72
2022/07/26 00:25:56;;;;;;;;;;;13.70;99.90;;;;;;5093815;28;19908;-72
2022/07/26 00:28:22;;;;;;;;;;;13.80;99.90;;;;;;5092253;28;19916;-70
2022/07/26 00:30:49;;;;;;;;;;;13.80;99.90;;;;;;5093900;28;19938;-71
2022/07/26 00:33:16;;;;;;;;;;;13.70;99.90;;;;;;5094049;28;19915;-70
2022/07/26 00:35:43;;;;;;;;;;;13.70;99.90;;;;;;5094804;28;19915;-71
2022/07/26 00:38:10;;;;;;;;;;;13.80;99.90;;;;;;5092480;28;20015;-71
2022/07/26 00:40:36;;;;;;;;;;;13.80;99.90;;;;;;5093928;28;19931;-71
2022/07/26 00:43:03;;;;;;;;;;;13.90;99.90;;;;;;5093735;28;19916;-70
2022/07/26 00:45:30;;;;;;;;;;;14.00;99.90;;;;;;5093795;28;19908;-71
2022/07/26 00:47:57;;;;;;;;;;;14.00;99.90;;;;;;5093689;28;20273;-71
2022/07/26 00:50:23;;;;;;;;;;;14.10;99.90;;;;;;5093924;28;19962;-71
2022/07/26 00:52:50;;;;;;;;;;;14.20;99.90;;;;;;5094979;28;19969;-72
2022/07/26 00:55:17;;;;;;;;;;;14.20;99.90;;;;;;5094468;28;20396;-71
2022/07/26 00:57:45;;;;;;;;;;;14.30;99.90;;;;;;5094832;28;20270;-71
2022/07/26 01:00:19;;;;;;;;;;;14.40;99.90;;;;;;5094253;28;19920;-71
2022/07/26 01:02:46;;;;;;;;;;;14.30;99.90;;;;;;5095427;28;20354;-72
2022/07/26 01:05:12;;;;;;;;;;;14.40;99.90;;;;;;5093971;28;20355;-70
2022/07/26 01:07:40;;;;;;;;;;;14.50;99.90;;;;;;5094569;28;19909;-74
2022/07/26 01:10:11;;;;;;;;;;;14.70;99.90;;;;;;5094088;28;19994;-73
2022/07/26 01:12:41;;;;;;;;;;;14.90;99.90;;;;;;5094924;28;19912;-69
2022/07/26 01:15:08;;;;;;;;;;;15.00;99.90;;;;;;5099981;28;19912;-70
2022/07/26 01:17:35;;;;;;;;;;;15.20;99.90;;;;;;5094019;28;19909;-71
2022/07/26 01:20:02;;;;;;;;;;;15.50;99.90;;;;;;5093452;28;20065;-70
2022/07/26 01:22:29;;;;;;;;;;;15.60;99.90;;;;;;5093484;28;19955;-71
2022/07/26 01:24:55;;;;;;;;;;;15.70;99.90;;;;;;5093691;28;19915;-71
2022/07/26 01:27:22;;;;;;;;;;;15.70;99.90;;;;;;5092452;28;20265;-70
2022/07/26 01:29:50;;;;;;;;;;;15.80;99.90;;;;;;5097240;28;20349;-70
2022/07/26 01:32:17;;;;;;;;;;;15.90;99.90;;;;;;5097000;28;19909;-72
2022/07/26 01:34:44;;;;;;;;;;;15.90;99.90;;;;;;5096883;28;20320;-71
2022/07/26 01:37:11;;;;;;;;;;;15.90;99.90;;;;;;5096709;28;19935;-70
2022/07/26 01:39:38;;;;;;;;;;;15.90;99.90;;;;;;5096989;28;20362;-70
2022/07/26 01:42:05;;;;;;;;;;;15.90;99.90;;;;;;5096346;28;20016;-70
2022/07/26 01:44:31;;;;;;;;;;;16.00;99.90;;;;;;5096667;28;19912;-68
2022/07/26 01:46:58;;;;;;;;;;;16.00;99.90;;;;;;5096667;28;20460;-72
2022/07/26 01:49:25;;;;;;;;;;;16.10;99.90;;;;;;5096844;28;19908;-70
2022/07/26 01:51:51;;;;;;;;;;;16.10;99.90;;;;;;5096809;28;19915;-73
2022/07/26 01:54:18;;;;;;;;;;;16.10;99.90;;;;;;5096430;28;19912;-72
2022/07/26 01:56:45;;;;;;;;;;;16.00;99.90;;;;;;5096634;28;20278;-71
2022/07/26 01:59:12;;;;;;;;;;;16.00;99.90;;;;;;5096722;28;20370;-71
2022/07/26 02:01:38;;;;;;;;;;;16.00;99.90;;;;;;5096680;28;19908;-72
2022/07/26 02:04:05;;;;;;;;;;;16.10;99.90;;;;;;5096484;28;20010;-72
2022/07/26 02:06:32;;;;;;;;;;;16.10;99.90;;;;;;5096996;28;19908;-70
2022/07/26 02:08:58;;;;;;;;;;;16.10;99.90;;;;;;5096294;28;20269;-72
2022/07/26 02:11:25;;;;;;;;;;;16.20;99.90;;;;;;5096577;28;19914;-72
2022/07/26 02:13:52;;;;;;;;;;;16.30;99.90;;;;;;5096564;28;20307;-72
2022/07/26 02:16:18;;;;;;;;;;;16.40;99.90;;;;;;5096273;28;20319;-72
2022/07/26 02:18:45;;;;;;;;;;;16.40;99.90;;;;;;5096419;28;19909;-72
2022/07/26 02:21:12;;;;;;;;;;;16.40;99.90;;;;;;5096420;28;19963;-71
2022/07/26 02:23:38;;;;;;;;;;;16.50;99.90;;;;;;5096203;28;19984;-71
2022/07/26 02:26:05;;;;;;;;;;;16.50;99.90;;;;;;5095988;28;19915;-70
2022/07/26 02:28:32;;;;;;;;;;;16.60;99.90;;;;;;5096856;28;19908;-71
2022/07/26 02:31:00;;;;;;;;;;;16.70;99.90;;;;;;5096246;28;20007;-71
2022/07/26 02:33:26;;;;;;;;;;;16.80;99.90;;;;;;5096173;28;19915;-71
2022/07/26 02:35:53;;;;;;;;;;;16.70;99.90;;;;;;5077078;28;19912;-71
2022/07/26 02:38:20;;;;;;;;;;;16.70;99.90;;;;;;5060173;28;19915;-71
2022/07/26 02:40:49;;;;;;;;;;;16.80;99.90;;;;;;5054682;28;19909;-72
2022/07/26 02:43:16;;;;;;;;;;;16.80;99.90;;;;;;5055537;28;19923;-71
2022/07/26 02:45:42;;;;;;;;;;;16.80;99.90;;;;;;5059214;28;20256;-72
2022/07/26 02:48:09;;;;;;;;;;;16.70;99.90;;;;;;5098110;28;19908;-72
2022/07/26 02:50:36;;;;;;;;;;;16.70;99.90;;;;;;5097526;28;19952;-72
2022/07/26 02:53:02;;;;;;;;;;;16.60;99.90;;;;;;5095357;28;19908;-72
2022/07/26 02:55:29;;;;;;;;;;;16.60;99.90;;;;;;5095271;28;20362;-72
2022/07/26 02:57:56;;;;;;;;;;;16.70;99.90;;;;;;5095366;28;19911;-71
2022/07/26 03:00:24;;;;;;;;;;;16.70;99.90;;;;;;5094797;28;19966;-72
2022/07/26 03:02:51;;;;;;;;;;;16.80;99.90;;;;;;5095106;28;19924;-73
2022/07/26 03:05:18;;;;;;;;;;;16.80;99.90;;;;;;5095137;28;20366;-72
2022/07/26 03:07:45;;;;;;;;;;;16.80;99.90;;;;;;5095045;28;19908;-71
2022/07/26 03:10:12;;;;;;;;;;;16.80;99.90;;;;;;5094863;28;19977;-72
2022/07/26 03:12:39;;;;;;;;;;;16.90;99.90;;;;;;5094910;28;19915;-72
2022/07/26 03:15:06;;;;;;;;;;;16.80;99.90;;;;;;5094923;28;19954;-72
2022/07/26 03:17:32;;;;;;;;;;;16.70;99.90;;;;;;5094923;28;19908;-72
2022/07/26 03:20:01;;;;;;;;;;;16.70;99.90;;;;;;5094715;28;19908;-73
2022/07/26 03:22:27;;;;;;;;;;;16.60;99.90;;;;;;5094865;28;20312;-71
2022/07/26 03:24:54;;;;;;;;;;;16.60;99.90;;;;;;5094900;28;19912;-72
2022/07/26 03:27:21;;;;;;;;;;;16.60;99.90;;;;;;5095707;28;19908;-71
2022/07/26 03:29:47;;;;;;;;;;;16.70;99.90;;;;;;5095631;28;20384;-71
2022/07/26 03:32:14;;;;;;;;;;;16.70;99.90;;;;;;5094955;28;19914;-72
2022/07/26 03:34:41;;;;;;;;;;;16.60;99.90;;;;;;5094927;28;19962;-72
2022/07/26 03:37:07;;;;;;;;;;;16.70;99.90;;;;;;5094471;28;19955;-72
2022/07/26 03:39:36;;;;;;;;;;;16.70;99.90;;;;;;5070495;28;19913;-71
2022/07/26 03:42:04;;;;;;;;;;;16.90;99.90;;;;;;5053962;28;19909;-72
2022/07/26 03:44:30;;;;;;;;;;;16.90;99.90;;;;;;5052428;28;19913;-71
2022/07/26 03:46:57;;;;;;;;;;;16.90;99.90;;;;;;5053607;28;19909;-71
2022/07/26 03:49:25;;;;;;;;;;;16.90;99.90;;;;;;5068968;28;19908;-72
2022/07/26 03:51:51;;;;;;;;;;;16.80;99.90;;;;;;5094128;28;19909;-71
2022/07/26 03:54:18;;;;;;;;;;;16.80;99.90;;;;;;5094279;28;20388;-71
2022/07/26 03:56:45;;;;;;;;;;;16.70;99.60;;;;;;5094591;28;20002;-72
2022/07/26 03:59:16;;;;;;;;;;;16.60;99.40;;;;;;5094679;28;19920;-70
2022/07/26 04:01:43;;;;;;;;;;;16.70;99.00;;;;;;5093936;28;19908;-71
2022/07/26 04:04:11;;;;;;;;;;;16.60;99.90;;;;;;5094617;28;19916;-72
2022/07/26 04:06:38;;;;;;;;;;;16.60;99.90;;;;;;5094918;28;19954;-71
2022/07/26 04:09:06;;;;;;;;;;;16.50;99.90;;;;;;5094232;28;19915;-69
2022/07/26 04:11:34;;;;;;;;;;;16.50;99.90;;;;;;5094555;28;19912;-68
2022/07/26 04:14:01;;;;;;;;;;;16.40;99.90;;;;;;5094489;28;19915;-71
2022/07/26 04:16:28;;;;;;;;;;;16.50;99.90;;;;;;5094703;28;19916;-70
2022/07/26 04:18:55;;;;;;;;;;;16.50;99.90;;;;;;5094281;28;20374;-71
2022/07/26 04:21:24;;;;;;;;;;;16.60;99.90;;;;;;5094397;28;19908;-70
2022/07/26 04:23:51;;;;;;;;;;;16.70;99.40;;;;;;5088931;28;19920;-71
2022/07/26 04:26:21;;;;;;;;;;;16.70;99.60;;;;;;5066186;28;20223;-68
2022/07/26 04:28:48;;;;;;;;;;;16.70;99.90;;;;;;5093830;28;19999;-68
2022/07/26 04:31:15;;;;;;;;;;;16.70;99.90;;;;;;5093928;28;19908;-70
2022/07/26 04:33:42;;;;;;;;;;;16.70;99.90;;;;;;5094133;28;19917;-71
2022/07/26 04:36:08;;;;;;;;;;;16.70;99.90;;;;;;5093666;28;19912;-68
2022/07/26 04:38:35;;;;;;;;;;;16.60;99.90;;;;;;5094102;28;19943;-71
2022/07/26 04:41:02;;;;;;;;;;;16.60;99.90;;;;;;5093708;28;19915;-68
2022/07/26 04:43:29;;;;;;;;;;;16.30;99.10;;;;;;5093591;28;19920;-68
2022/07/26 04:45:59;;;;;;;;;;;16.10;99.60;;;;;;5093685;28;19915;-71
2022/07/26 04:48:26;;;;;;;;;;;16.00;99.50;;;;;;5093551;28;19955;-71
2022/07/26 04:50:53;;;;;;;;;;;15.80;99.90;;;;;;5093576;28;19947;-69
2022/07/26 04:53:22;;;;;;;;;;;15.70;99.90;;;;;;5093777;28;19912;-71
2022/07/26 04:55:49;;;;;;;;;;;15.70;99.90;;;;;;5094397;28;19920;-71
2022/07/26 04:58:15;;;;;;;;;;;15.70;99.90;;;;;;5093982;28;20286;-70
2022/07/26 05:00:42;;;;;;;;;;;15.60;99.20;;;;;;5093805;28;19920;-70
2022/07/26 05:03:09;;;;;;;;;;;15.50;99.40;;;;;;5096769;28;20270;-69
2022/07/26 05:05:35;;;;;;;;;;;15.40;99.70;;;;;;5097844;28;19944;-68
2022/07/26 05:08:02;;;;;;;;;;;15.30;98.60;;;;;;5097127;28;19937;-69
2022/07/26 05:10:36;;;;;;;;;;;15.20;99.20;;;;;;5099553;28;19908;-69
2022/07/26 05:13:03;;;;;;;;;;;15.20;99.30;;;;;;5101196;28;20274;-69
2022/07/26 05:15:31;;;;;;;;;;;15.10;99.10;;;;;;5097721;28;19958;-70
2022/07/26 05:18:01;;;;;;;;;;;15.10;99.70;;;;;;5097264;28;20305;-69
2022/07/26 05:20:28;;;;;;;;;;;15.10;99.90;;;;;;5097271;28;19909;-70
2022/07/26 05:22:55;;;;;;;;;;;14.90;99.90;;;;;;5096847;28;19924;-68
2022/07/26 05:25:21;;;;;;;;;;;14.80;99.90;;;;;;5097080;28;19912;-67
2022/07/26 05:27:48;;;;;;;;;;;14.70;99.90;;;;;;5096902;28;19958;-69
2022/07/26 05:30:15;;;;;;;;;;;14.60;99.90;;;;;;5096428;28;19974;-70
2022/07/26 05:32:41;;;;;;;;;;;14.50;99.90;;;;;;5096833;28;19908;-69
2022/07/26 05:35:09;;;;;;;;;;;14.50;99.80;;;;;;5096778;28;19961;-69
2022/07/26 05:37:35;;;;;;;;;;;14.50;99.90;;;;;;5096634;28;20332;-69
2022/07/26 05:40:04;;;;;;;;;;;14.60;99.90;;;;;;5096481;28;19908;-70
2022/07/26 05:42:30;;;;;;;;;;;14.60;99.90;;;;;;5096535;28;19912;-69
2022/07/26 05:44:57;;;;;;;;;;;14.60;98.90;;;;;;5096607;28;19990;-71
2022/07/26 05:47:24;;;;;;;;;;;14.70;98.60;;;;;;5096445;28;19957;-69
2022/07/26 05:49:51;;;;;;;;;;;14.70;98.80;;;;;;5096606;28;19908;-69
2022/07/26 05:52:17;;;;;;;;;;;14.60;99.10;;;;;;5096061;28;19919;-69
2022/07/26 05:54:44;;;;;;;;;;;14.60;98.70;;;;;;5096354;28;19908;-68
2022/07/26 05:57:11;;;;;;;;;;;14.50;98.90;;;;;;5097526;28;20282;-71
2022/07/26 05:59:38;;;;;;;;;;;14.40;99.90;;;;;;5099338;28;19931;-71
2022/07/26 06:02:07;;;;;;;;;;;14.30;99.90;;;;;;5095338;28;19908;-70
2022/07/26 06:04:34;;;;;;;;;;;14.30;98.80;;;;;;5096266;28;19915;-70
2022/07/26 06:07:01;;;;;;;;;;;14.30;98.80;;;;;;5096291;28;20011;-67
2022/07/26 06:09:28;;;;;;;;;;;14.30;98.80;;;;;;5094878;28;19916;-70
2022/07/26 06:11:54;;;;;;;;;;;14.30;99.90;;;;;;5096274;28;19954;-69
2022/07/26 06:14:21;;;;;;;;;;;14.30;99.40;;;;;;5094531;28;19912;-69
2022/07/26 06:16:48;;;;;;;;;;;14.30;99.30;;;;;;5095959;28;19913;-70
2022/07/26 06:19:15;;;;;;;;;;;14.30;98.50;;;;;;5095486;28;20354;-69
2022/07/26 06:21:44;;;;;;;;;;;14.20;99.10;;;;;;5095992;28;20285;-68
2022/07/26 06:24:11;;;;;;;;;;;14.20;99.30;;;;;;5095613;28;19916;-68
2022/07/26 06:26:38;;;;;;;;;;;14.20;98.80;;;;;;5095917;28;19948;-70
2022/07/26 06:29:04;;;;;;;;;;;14.10;99.90;;;;;;5095955;28;19915;-68
2022/07/26 06:31:31;;;;;;;;;;;14.10;99.50;;;;;;5095618;28;19960;-69
2022/07/26 06:33:58;;;;;;;;;;;14.10;99.90;;;;;;5095686;28;19927;-69
2022/07/26 06:36:24;;;;;;;;;;;14.00;99.90;;;;;;5095194;28;19961;-70
2022/07/26 06:38:52;;;;;;;;;;;14.00;99.90;;;;;;5095606;28;20278;-73
2022/07/26 06:41:19;;;;;;;;;;;13.90;99.90;;;;;;5095338;28;19956;-69
2022/07/26 06:43:45;;;;;;;;;;;13.80;99.90;;;;;;5095136;28;20359;-69
2022/07/26 06:46:12;;;;;;;;;;;13.80;99.70;;;;;;5095108;28;19970;-69
2022/07/26 06:48:39;;;;;;;;;;;13.70;99.80;;;;;;5095232;28;19947;-68
2022/07/26 06:51:08;;;;;;;;;;;13.60;99.90;;;;;;5093826;28;20011;-70
2022/07/26 06:53:35;;;;;;;;;;;13.60;99.90;;;;;;5092167;28;19962;-71
2022/07/26 06:56:02;;;;;;;;;;;13.50;99.90;;;;;;5091848;28;20286;-69
2022/07/26 06:58:29;;;;;;;;;;;13.40;99.70;;;;;;5093022;28;19911;-69
2022/07/26 07:00:56;;;;;;;;;;;13.40;99.90;;;;;;5093000;28;20378;-70
2022/07/26 07:03:22;;;;;;;;;;;13.30;99.90;;;;;;5073769;28;19921;-70
2022/07/26 07:05:49;;;;;;;;;;;13.30;99.90;;;;;;5084398;28;19915;-69
2022/07/26 07:08:16;;;;;;;;;;;13.20;99.90;;;;;;5092951;28;19908;-67
2022/07/26 07:10:42;;;;;;;;;;;13.20;99.90;;;;;;5092745;28;19920;-68
2022/07/26 07:13:09;;;;;;;;;;;13.10;99.90;;;;;;5092846;28;20376;-70
2022/07/26 07:15:36;;;;;;;;;;;13.00;99.90;;;;;;5092636;28;20449;-71
2022/07/26 07:18:03;;;;;;;;;;;13.00;99.90;;;;;;5092298;28;19916;-69
2022/07/26 07:20:29;;;;;;;;;;;12.90;99.90;;;;;;5092666;28;19916;-71
2022/07/26 07:22:56;;;;;;;;;;;12.90;99.90;;;;;;5092425;28;19912;-71
2022/07/26 07:25:26;;;;;;;;;;;12.80;99.90;;;;;;5092262;28;19915;-71
2022/07/26 07:27:53;;;;;;;;;;;12.80;99.90;;;;;;5092435;28;19951;-71
2022/07/26 07:30:20;;;;;;;;;;;12.80;99.90;;;;;;5092066;28;19908;-71
2022/07/26 07:32:46;;;;;;;;;;;12.70;99.90;;;;;;5092529;28;19909;-70
2022/07/26 07:35:13;;;;;;;;;;;12.70;99.90;;;;;;5092745;28;19955;-69
2022/07/26 07:37:40;;;;;;;;;;;12.70;99.90;;;;;;5092607;28;20585;-68
2022/07/26 07:40:07;;;;;;;;;;;12.70;99.90;;;;;;5091851;28;19923;-70
2022/07/26 07:42:34;;;;;;;;;;;12.60;99.90;;;;;;5091709;28;19920;-70
2022/07/26 07:45:01;;;;;;;;;;;12.60;99.90;;;;;;5092118;28;19919;-70
2022/07/26 07:47:28;;;;;;;;;;;12.60;99.90;;;;;;5091933;28;20297;-67
2022/07/26 07:49:55;;;;;;;;;;;12.50;99.90;;;;;;5091890;28;19996;-68
2022/07/26 07:52:22;;;;;;;;;;;12.50;99.90;;;;;;5091440;28;19919;-67
2022/07/26 07:54:48;;;;;;;;;;;12.50;99.90;;;;;;5092228;28;19918;-69
2022/07/26 07:57:15;;;;;;;;;;;12.40;99.90;;;;;;5091700;28;19909;-70
2022/07/26 07:59:42;;;;;;;;;;;12.40;99.90;;;;;;5091758;28;19917;-69
2022/07/26 08:02:11;;;;;;;;;;;12.50;99.90;;;;;;5090329;28;19995;-70
2022/07/26 08:04:38;;;;;;;;;;;12.40;99.90;;;;;;5092132;28;19916;-71
2022/07/26 08:07:08;;;;;;;;;;;12.50;99.90;;;;;;5090868;28;20230;-70
2022/07/26 08:09:35;;;;;;;;;;;12.40;99.90;;;;;;5091320;28;19909;-70
2022/07/26 08:12:02;;;;;;;;;;;12.40;99.90;;;;;;5091392;28;19912;-69
2022/07/26 08:14:28;;;;;;;;;;;12.40;99.90;;;;;;5091773;28;19916;-69
2022/07/26 08:16:57;;;;;;;;;;;12.40;99.90;;;;;;5091571;28;19918;-71
2022/07/26 08:19:24;;;;;;;;;;;12.50;99.90;;;;;;5090097;28;19908;-69
2022/07/26 08:21:51;;;;;;;;;;;12.40;99.90;;;;;;5091075;28;20378;-71
2022/07/26 08:24:18;;;;;;;;;;;12.40;99.90;;;;;;5089716;28;20370;-69
2022/07/26 08:26:45;;;;;;;;;;;12.40;99.90;;;;;;5091417;28;19909;-70
2022/07/26 08:29:11;;;;;;;;;;;12.40;99.90;;;;;;5091431;28;19912;-73
2022/07/26 08:31:38;;;;;;;;;;;12.40;99.90;;;;;;5091316;28;19923;-70
2022/07/26 08:34:05;;;;;;;;;;;12.30;99.90;;;;;;5091034;28;19964;-69
2022/07/26 08:36:31;;;;;;;;;;;12.30;99.90;;;;;;5091056;28;19912;-71
2022/07/26 08:38:58;;;;;;;;;;;12.40;99.90;;;;;;5090701;28;20413;-70
2022/07/26 08:41:25;;;;;;;;;;;12.30;99.90;;;;;;5090075;28;19908;-71
2022/07/26 08:43:51;;;;;;;;;;;12.40;99.90;;;;;;5091242;28;19923;-68
2022/07/26 08:46:19;;;;;;;;;;;12.40;99.90;;;;;;5090934;28;19912;-71
2022/07/26 08:48:45;;;;;;;;;;;12.30;99.90;;;;;;5090968;28;19908;-70
2022/07/26 08:51:12;;;;;;;;;;;12.30;99.90;;;;;;5091012;28;20359;-69
2022/07/26 08:53:39;;;;;;;;;;;12.30;99.90;;;;;;5091205;28;19986;-71
2022/07/26 08:56:06;;;;;;;;;;;12.30;99.90;;;;;;5091547;28;20010;-72
2022/07/26 08:58:34;;;;;;;;;;;12.30;99.90;;;;;;5091329;28;19934;-68
2022/07/26 09:01:11;;;;;;;;;;;12.30;99.90;;;;;;5091390;28;19920;-71
2022/07/26 09:03:38;;;;;;;;;;;12.20;99.90;;;;;;5083537;28;19936;-69
2022/07/26 09:06:21;;;;;;;;;;;12.20;99.90;;;;;;5063156;28;19920;-70
2022/07/26 09:08:48;;;;;;;;;;;12.20;99.90;;;;;;5053897;28;20367;-69
2022/07/26 09:11:21;;;;;;;;;;;12.20;99.90;;;;;;5053016;28;19909;-71
2022/07/26 09:14:14;;;;;;;;;;;12.20;99.90;;;;;;5051919;28;20453;-67
2022/07/26 09:16:40;;;;;;;;;;;12.20;99.90;;;;;;5051772;28;20007;-70
2022/07/26 09:19:16;;;;;;;;;;;12.20;99.90;;;;;;5052345;28;19915;-69
2022/07/26 09:21:43;;;;;;;;;;;12.10;99.90;;;;;;5052290;28;20359;-70
2022/07/26 09:24:10;;;;;;;;;;;12.10;99.90;;;;;;5051944;28;20354;-71
2022/07/26 09:26:37;;;;;;;;;;;12.20;99.90;;;;;;5051972;28;19915;-70
2022/07/26 09:29:08;;;;;;;;;;;12.10;99.90;;;;;;5051538;28;19915;-71
2022/07/26 09:31:35;;;;;;;;;;;12.10;99.90;;;;;;5052569;28;20312;-71
2022/07/26 09:34:03;;;;;;;;;;;12.10;99.90;;;;;;5051967;28;20282;-71
2022/07/26 09:36:30;;;;;;;;;;;12.00;99.90;;;;;;5051671;28;20274;-70
2022/07/26 09:38:59;;;;;;;;;;;12.00;99.90;;;;;;5052028;28;19909;-71
2022/07/26 09:41:28;;;;;;;;;;;12.00;99.90;;;;;;5052207;28;19963;-72
2022/07/26 09:43:57;;;;;;;;;;;11.90;99.90;;;;;;5052040;28;19917;-71
2022/07/26 09:46:26;;;;;;;;;;;12.00;99.90;;;;;;5051734;28;20004;-72
2022/07/26 09:48:56;;;;;;;;;;;12.10;99.90;;;;;;5052832;28;19909;-71
2022/07/26 09:51:36;;;;;;;;;;;12.00;99.90;;;;;;5055173;28;19981;-71
2022/07/26 09:54:04;;;;;;;;;;;12.00;99.90;;;;;;5055227;28;20381;-71
2022/07/26 09:56:50;;;;;;;;;;;12.10;99.90;;;;;;5082537;28;19951;-72
2022/07/26 09:59:18;;;;;;;;;;;12.10;99.90;;;;;;5096101;28;20005;-71
2022/07/26 10:01:45;;;;;;;;;;;12.10;99.90;;;;;;5096293;28;19909;-72
2022/07/26 10:04:13;;;;;;;;;;;12.10;99.90;;;;;;5096177;28;19916;-71
2022/07/26 10:06:40;;;;;;;;;;;12.10;99.90;;;;;;5096078;28;20286;-71
2022/07/26 10:09:07;;;;;;;;;;;12.10;99.90;;;;;;5095999;28;19915;-69
2022/07/26 10:11:41;;;;;;;;;;;12.10;99.90;;;;;;5096189;28;19908;-70
2022/07/26 10:14:28;;;;;;;;;;;12.00;99.90;;;;;;5096009;28;19912;-70
2022/07/26 10:16:55;;;;;;;;;;;12.10;99.90;;;;;;5088647;28;19908;-70
2022/07/26 10:19:41;;;;;;;;;;;12.10;99.90;;;;;;5095744;28;19961;-69
2022/07/26 10:22:34;;;;;;;;;;;12.10;99.90;;;;;;5095319;28;20003;-69
2022/07/26 10:25:16;;;;;;;;;;;12.20;99.90;;;;;;5093698;28;19917;-70
2022/07/26 10:27:44;;;;;;;;;;;12.10;99.90;;;;;;5094825;28;19965;-70
2022/07/26 10:30:23;;;;;;;;;;;12.10;99.90;;;;;;5093392;28;20232;-69
2022/07/26 10:32:53;;;;;;;;;;;12.10;99.90;;;;;;5093432;28;19956;-70
2022/07/26 10:35:29;;;;;;;;;;;12.10;99.90;;;;;;5059889;28;19916;-70
2022/07/26 10:37:59;;;;;;;;;;;12.10;99.90;;;;;;5056415;28;20054;-71
2022/07/26 10:40:29;;;;;;;;;;;12.10;99.90;;;;;;5052527;28;20012;-70
2022/07/26 10:43:15;;;;;;;;;;;12.00;99.90;;;;;;5051819;28;20379;-71
2022/07/26 10:45:43;;;;;;;;;;;12.00;99.90;;;;;;5053936;28;19999;-70
2022/07/26 10:48:10;;;;;;;;;;;12.00;99.90;;;;;;5051822;28;20000;-72
2022/07/26 10:50:38;;;;;;;;;;;12.00;99.90;;;;;;5052236;28;19978;-71
2022/07/26 10:53:04;;;;;;;;;;;12.00;99.90;;;;;;5052920;28;19954;-71
2022/07/26 10:55:43;;;;;;;;;;;12.00;99.90;;;;;;5052115;28;19913;-69
2022/07/26 10:58:10;;;;;;;;;;;12.00;99.90;;;;;;5051401;28;19916;-71
2022/07/26 11:00:37;;;;;;;;;;;12.00;99.90;;;;;;5050997;28;19920;-70
2022/07/26 11:03:04;;;;;;;;;;;12.00;99.90;;;;;;5052186;28;19913;-71
2022/07/26 11:05:33;;;;;;;;;;;12.00;99.90;;;;;;5051836;28;20340;-70
2022/07/26 11:08:03;;;;;;;;;;;12.00;99.90;;;;;;5051640;28;19912;-71
2022/07/26 11:10:41;;;;;;;;;;;12.00;99.90;;;;;;5051900;28;20007;-68
2022/07/26 11:13:09;;;;;;;;;;;11.90;99.90;;;;;;5051280;28;19912;-70
2022/07/26 11:15:37;;;;;;;;;;;11.90;99.90;;;;;;5052104;28;19913;-70
2022/07/26 11:18:12;;;;;;;;;;;11.90;99.90;;;;;;5051624;28;19920;-70
2022/07/26 11:20:39;;;;;;;;;;;11.90;99.90;;;;;;5051851;28;19916;-70
2022/07/26 11:23:26;;;;;;;;;;;11.80;99.90;;;;;;5052524;28;19921;-70
2022/07/26 11:25:59;;;;;;;;;;;11.80;99.90;;;;;;5051373;28;19966;-71
2022/07/26 11:28:26;;;;;;;;;;;11.90;99.90;;;;;;5051419;28;20285;-71
2022/07/26 11:30:57;;;;;;;;;;;11.80;99.90;;;;;;5051517;28;19909;-70
2022/07/26 11:33:40;;;;;;;;;;;11.80;99.90;;;;;;5051678;28;19912;-72
2022/07/26 11:36:07;;;;;;;;;;;11.80;99.90;;;;;;5051105;28;19908;-71
2022/07/26 11:38:52;;;;;;;;;;;11.80;99.90;;;;;;5051439;28;19908;-71
2022/07/26 11:41:20;;;;;;;;;;;11.80;99.90;;;;;;5050384;28;20274;-69
2022/07/26 11:43:47;;;;;;;;;;;11.70;99.90;;;;;;5051507;28;19916;-68
2022/07/26 11:46:15;;;;;;;;;;;11.70;99.90;;;;;;5051357;28;19909;-70
2022/07/26 11:48:46;;;;;;;;;;;11.70;99.90;;;;;;5051207;28;20397;-71
2022/07/26 11:51:14;;;;;;;;;;;11.70;99.90;;;;;;5052561;28;20375;-70
2022/07/26 11:53:41;;;;;;;;;;;11.70;99.90;;;;;;5053211;28;19999;-72
2022/07/26 11:56:19;;;;;;;;;;;11.70;99.90;;;;;;5051609;28;19916;-70
2022/07/26 11:58:47;;;;;;;;;;;11.60;99.90;;;;;;5053144;28;19948;-70
2022/07/26 12:01:15;;;;;;;;;;;11.60;99.90;;;;;;5053391;28;19917;-70
2022/07/26 12:03:42;;;;;;;;;;;11.60;99.90;;;;;;5053147;28;19974;-71
2022/07/26 12:06:13;;;;;;;;;;;11.60;99.90;;;;;;5052851;28;19909;-69
2022/07/26 12:08:41;;;;;;;;;;;11.60;99.90;;;;;;5058913;28;19912;-73
2022/07/26 12:11:08;;;;;;;;;;;11.60;99.90;;;;;;5059045;28;19912;-71
2022/07/26 12:13:58;;;;;;;;;;;11.60;99.90;;;;;;5070912;28;20278;-70
2022/07/26 12:16:40;;;;;;;;;;;11.50;99.90;;;;;;5067479;28;19961;-70
2022/07/26 12:19:08;;;;;;;;;;;11.60;99.90;;;;;;5070677;28;19908;-72
2022/07/26 12:21:46;;;;;;;;;;;11.60;99.90;;;;;;5071166;28;19913;-71
2022/07/26 12:24:32;;;;;;;;;;;11.50;99.90;;;;;;5071081;28;19978;-71
2022/07/26 12:27:06;;;;;;;;;;;11.60;99.90;;;;;;5069083;28;19986;-70
2022/07/26 12:29:36;;;;;;;;;;;11.50;99.90;;;;;;5061521;28;20379;-71
2022/07/26 12:32:04;;;;;;;;;;;11.50;99.90;;;;;;5073234;28;20003;-70
2022/07/26 12:34:31;;;;;;;;;;;11.40;99.90;;;;;;5073360;28;20478;-71
2022/07/26 12:37:05;;;;;;;;;;;11.50;99.90;;;;;;5073629;28;19912;-72
2022/07/26 12:39:32;;;;;;;;;;;11.40;99.90;;;;;;5073451;28;19908;-71
2022/07/26 12:41:59;;;;;;;;;;;11.40;99.90;;;;;;5073596;28;19953;-69
2022/07/26 12:44:25;;;;;;;;;;;11.40;99.90;;;;;;5072956;28;19917;-68
2022/07/26 12:46:52;;;;;;;;;;;11.40;99.90;;;;;;5073320;28;19913;-69
2022/07/26 12:49:19;;;;;;;;;;;11.40;99.90;;;;;;5073373;28;19908;-70
2022/07/26 12:51:46;;;;;;;;;;;11.40;99.90;;;;;;5073174;28;19909;-71
2022/07/26 12:54:12;;;;;;;;;;;11.30;99.90;;;;;;5073047;28;19908;-71
2022/07/26 12:56:43;;;;;;;;;;;11.30;99.90;;;;;;5073241;28;20359;-69
2022/07/26 12:59:11;;;;;;;;;;;11.30;99.90;;;;;;5073388;28;19927;-71
2022/07/26 13:01:38;;;;;;;;;;;11.30;99.90;;;;;;5073246;28;19908;-72
2022/07/26 13:04:04;;;;;;;;;;;11.30;99.90;;;;;;5073177;28;19917;-71
2022/07/26 13:06:31;;;;;;;;;;;11.30;99.90;;;;;;5073285;28;20442;-71
2022/07/26 13:08:59;;;;;;;;;;;11.30;99.90;;;;;;5073531;28;20287;-72
2022/07/26 13:11:26;;;;;;;;;;;11.30;99.90;;;;;;5073216;28;19908;-69
2022/07/26 13:13:54;;;;;;;;;;;11.30;99.90;;;;;;5073548;28;20010;-69
2022/07/26 13:16:21;;;;;;;;;;;11.20;99.90;;;;;;5073181;28;20347;-69
2022/07/26 13:18:48;;;;;;;;;;;11.20;99.90;;;;;;5073124;28;19916;-70
2022/07/26 13:21:14;;;;;;;;;;;11.20;99.90;;;;;;5073551;28;19941;-70
2022/07/26 13:23:41;;;;;;;;;;;11.20;99.90;;;;;;5074189;28;19924;-71
2022/07/26 13:26:08;;;;;;;;;;;11.20;99.90;;;;;;5076889;28;19912;-72
2022/07/26 13:28:34;;;;;;;;;;;11.10;99.90;;;;;;5076908;28;20239;-71
2022/07/26 13:31:01;;;;;;;;;;;11.20;99.90;;;;;;5076656;28;19977;-72
2022/07/26 13:33:28;;;;;;;;;;;11.20;99.90;;;;;;5076709;28;19912;-72
2022/07/26 13:35:55;;;;;;;;;;;11.20;99.90;;;;;;5076710;28;19909;-72
2022/07/26 13:38:21;;;;;;;;;;;11.20;99.90;;;;;;5076330;28;19912;-72
2022/07/26 13:40:49;;;;;;;;;;;11.20;99.90;;;;;;5076585;28;19960;-72
2022/07/26 13:43:16;;;;;;;;;;;11.20;99.90;;;;;;5076431;28;19916;-72
2022/07/26 13:45:42;;;;;;;;;;;11.20;99.90;;;;;;5076375;28;19908;-68
2022/07/26 13:48:09;;;;;;;;;;;11.20;99.90;;;;;;5076080;28;19939;-71
2022/07/26 13:50:36;;;;;;;;;;;11.20;99.90;;;;;;5076216;28;20080;-70
2022/07/26 13:53:02;;;;;;;;;;;11.10;99.90;;;;;;5076427;28;19936;-70
2022/07/26 13:55:29;;;;;;;;;;;11.10;99.90;;;;;;5076331;28;19962;-70
2022/07/26 13:57:56;;;;;;;;;;;11.10;99.90;;;;;;5076149;28;19915;-70
2022/07/26 14:00:22;;;;;;;;;;;11.10;99.90;;;;;;5076583;28;20295;-69
2022/07/26 14:02:49;;;;;;;;;;;11.10;99.90;;;;;;5077026;28;19914;-70
2022/07/26 14:05:16;;;;;;;;;;;11.10;99.90;;;;;;5076223;28;19912;-71
2022/07/26 14:07:42;;;;;;;;;;;11.10;99.90;;;;;;5076082;28;19908;-70
2022/07/26 14:10:09;;;;;;;;;;;11.10;99.90;;;;;;5075836;28;19909;-71
2022/07/26 14:12:36;;;;;;;;;;;11.10;99.90;;;;;;5075892;28;19994;-70
2022/07/26 14:15:04;;;;;;;;;;;11.10;99.90;;;;;;5074608;28;20000;-69
2022/07/26 14:17:30;;;;;;;;;;;11.10;99.90;;;;;;5075863;28;19909;-72
2022/07/26 14:19:57;;;;;;;;;;;11.20;99.90;;;;;;5075609;28;19908;-72
2022/07/26 14:22:24;;;;;;;;;;;11.10;99.90;;;;;;5075557;28;19985;-72